createdAt,value
2017-03-19T00:00:30.975Z,60.85
2017-03-19T00:01:30.990Z,61.13
2017-03-19T00:02:31.000Z,61.13
2017-03-19T00:03:31.015Z,60.88
2017-03-19T00:04:31.152Z,61.16
2017-03-19T00:05:31.046Z,60.85
2017-03-19T00:06:31.060Z,61.45
2017-03-19T00:07:30.766Z,61.32
2017-03-19T00:08:31.092Z,60.94
2017-03-19T00:09:31.098Z,61.8
2017-03-19T00:10:31.245Z,61.23
2017-03-19T00:11:31.128Z,61.32
2017-03-19T00:12:31.148Z,61.23
2017-03-19T00:13:31.162Z,61.32
2017-03-19T00:14:31.175Z,61.32
2017-03-19T00:15:31.317Z,61.23
2017-03-19T00:16:31.200Z,61.23
2017-03-19T00:17:31.221Z,61.8
2017-03-19T00:18:31.243Z,61.42
2017-03-19T00:19:31.251Z,61.61
2017-03-19T00:20:31.260Z,61.32
2017-03-19T00:21:31.274Z,61.42
2017-03-19T00:22:31.292Z,61.42
2017-03-19T00:23:31.308Z,61.8
2017-03-19T00:24:31.323Z,61.8
2017-03-19T00:25:31.020Z,61.71
2017-03-19T00:26:31.349Z,61.71
2017-03-19T00:27:31.056Z,61.9
2017-03-19T00:28:31.391Z,61.42
2017-03-19T00:29:31.388Z,61.99
2017-03-19T00:30:31.412Z,61.8
2017-03-19T00:31:31.416Z,61.71
2017-03-19T00:32:31.437Z,62.37
2017-03-19T00:33:31.446Z,62.75
2017-03-19T00:34:31.461Z,62.46
2017-03-19T00:35:31.161Z,62.46
2017-03-19T00:36:31.179Z,62.37
2017-03-19T00:37:31.541Z,62.46
2017-03-19T00:38:31.524Z,62.37
2017-03-19T00:39:31.536Z,62.27
2017-03-19T00:40:31.549Z,62.65
2017-03-19T00:41:31.564Z,62.46
2017-03-19T00:42:31.576Z,62.56
2017-03-19T00:43:31.593Z,62.56
2017-03-19T00:44:31.605Z,62.18
2017-03-19T00:45:31.644Z,62.08
2017-03-19T00:46:31.318Z,62.37
2017-03-19T00:47:31.649Z,62.75
2017-03-19T00:48:31.663Z,62.56
2017-03-19T00:49:31.675Z,62.56
2017-03-19T00:50:31.710Z,62.46
2017-03-19T00:51:31.703Z,62.46
2017-03-19T00:52:31.718Z,62.46
2017-03-19T00:53:31.730Z,62.37
2017-03-19T00:54:31.747Z,62.46
2017-03-19T00:55:31.759Z,62.46
2017-03-19T00:56:31.774Z,62.46
2017-03-19T00:57:31.790Z,62.65
2017-03-19T00:58:31.811Z,62.37
2017-03-19T00:59:31.818Z,62.85
2017-03-19T01:00:31.836Z,62.56
2017-03-19T01:01:31.847Z,62.85
2017-03-19T01:02:31.861Z,62.65
2017-03-19T01:03:31.878Z,62.46
2017-03-19T01:04:31.887Z,62.37
2017-03-19T01:05:31.904Z,62.46
2017-03-19T01:06:31.917Z,62.56
2017-03-19T01:07:31.934Z,62.65
2017-03-19T01:08:31.945Z,62.56
2017-03-19T01:09:31.962Z,62.65
2017-03-19T01:10:31.979Z,62.85
2017-03-19T01:11:31.996Z,62.56
2017-03-19T01:12:32.005Z,62.65
2017-03-19T01:13:32.023Z,62.65
2017-03-19T01:14:32.034Z,62.46
2017-03-19T01:15:32.040Z,62.94
2017-03-19T01:16:32.056Z,63.13
2017-03-19T01:17:32.073Z,62.75
2017-03-19T01:18:32.087Z,62.65
2017-03-19T01:19:32.098Z,62.75
2017-03-19T01:20:32.117Z,62.75
2017-03-19T01:21:32.130Z,62.75
2017-03-19T01:22:32.144Z,62.85
2017-03-19T01:23:32.158Z,62.94
2017-03-19T01:24:32.176Z,62.65
2017-03-19T01:25:32.188Z,63.23
2017-03-19T01:26:31.886Z,63.23
2017-03-19T01:27:32.212Z,63.23
2017-03-19T01:28:32.232Z,63.23
2017-03-19T01:29:32.244Z,62.85
2017-03-19T01:30:32.255Z,62.85
2017-03-19T01:31:32.271Z,63.04
2017-03-19T01:32:32.317Z,63.7
2017-03-19T01:33:32.303Z,63.23
2017-03-19T01:34:32.312Z,63.42
2017-03-19T01:35:32.332Z,63.6
2017-03-19T01:36:32.344Z,63.6
2017-03-19T01:37:32.042Z,63.42
2017-03-19T01:38:32.370Z,63.32
2017-03-19T01:39:32.073Z,63.32
2017-03-19T01:40:32.433Z,63.51
2017-03-19T01:41:32.411Z,63.42
2017-03-19T01:42:32.429Z,63.7
2017-03-19T01:43:32.131Z,63.79
2017-03-19T01:44:32.460Z,63.13
2017-03-19T01:45:32.469Z,63.6
2017-03-19T01:46:32.484Z,63.32
2017-03-19T01:47:32.499Z,63.42
2017-03-19T01:48:32.512Z,63.6
2017-03-19T01:49:32.529Z,63.6
2017-03-19T01:50:32.547Z,63.89
2017-03-19T01:51:32.579Z,63.51
2017-03-19T01:52:32.565Z,63.89
2017-03-19T01:53:32.582Z,64.08
2017-03-19T01:54:32.596Z,63.99
2017-03-19T01:55:32.609Z,63.79
2017-03-19T01:56:32.625Z,63.89
2017-03-19T01:57:32.641Z,63.89
2017-03-19T01:58:32.656Z,63.7
2017-03-19T01:59:32.665Z,64.08
2017-03-19T02:00:32.691Z,64.08
2017-03-19T02:01:32.698Z,63.51
2017-03-19T02:02:32.706Z,64.27
2017-03-19T02:03:32.720Z,64.27
2017-03-19T02:04:32.738Z,64.37
2017-03-19T02:05:32.751Z,64.08
2017-03-19T02:06:32.762Z,64.18
2017-03-19T02:07:32.786Z,64.18
2017-03-19T02:08:32.792Z,64.18
2017-03-19T02:09:32.807Z,63.99
2017-03-19T02:10:32.818Z,64.08
2017-03-19T02:11:32.838Z,64.18
2017-03-19T02:12:32.848Z,64.56
2017-03-19T02:13:32.870Z,64.65
2017-03-19T02:14:32.872Z,64.65
2017-03-19T02:15:32.890Z,64.65
2017-03-19T02:16:32.906Z,64.46
2017-03-19T02:17:32.916Z,63.89
2017-03-19T02:18:32.937Z,63.79
2017-03-19T02:19:32.947Z,64.27
2017-03-19T02:20:32.955Z,64.84
2017-03-19T02:21:32.977Z,63.79
2017-03-19T02:22:32.993Z,64.65
2017-03-19T02:23:33.002Z,64.37
2017-03-19T02:24:33.017Z,64.37
2017-03-19T02:25:33.028Z,64.37
2017-03-19T02:26:33.044Z,64.65
2017-03-19T02:27:33.059Z,64.46
2017-03-19T02:28:33.074Z,64.37
2017-03-19T02:29:33.083Z,64.27
2017-03-19T02:30:33.096Z,64.37
2017-03-19T02:31:33.111Z,64.37
2017-03-19T02:32:33.126Z,64.56
2017-03-19T02:33:33.142Z,64.56
2017-03-19T02:34:33.158Z,64.46
2017-03-19T02:35:33.167Z,64.27
2017-03-19T02:36:33.186Z,64.46
2017-03-19T02:37:33.196Z,64.46
2017-03-19T02:38:33.211Z,64.65
2017-03-19T02:39:33.228Z,64.46
2017-03-19T02:40:32.929Z,64.46
2017-03-19T02:41:33.250Z,64.46
2017-03-19T02:42:33.269Z,64.46
2017-03-19T02:43:33.280Z,64.65
2017-03-19T02:44:33.298Z,64.65
2017-03-19T02:45:33.311Z,64.65
2017-03-19T02:46:33.327Z,64.37
2017-03-19T02:47:33.333Z,64.18
2017-03-19T02:48:33.454Z,63.89
2017-03-19T02:49:33.463Z,64.08
2017-03-19T02:50:33.067Z,63.89
2017-03-19T02:51:33.481Z,63.99
2017-03-19T02:52:33.480Z,63.99
2017-03-19T02:53:33.488Z,63.99
2017-03-19T02:54:33.500Z,64.08
2017-03-19T02:55:33.507Z,64.27
2017-03-19T02:56:33.514Z,63.99
2017-03-19T02:57:33.480Z,64.27
2017-03-19T02:58:33.523Z,63.99
2017-03-19T02:59:33.544Z,64.27
2017-03-19T03:00:33.601Z,64.56
2017-03-19T03:01:33.608Z,64.56
2017-03-19T03:02:33.608Z,64.08
2017-03-19T03:03:33.617Z,64.46
2017-03-19T03:04:33.624Z,64.37
2017-03-19T03:05:33.674Z,64.56
2017-03-19T03:06:33.289Z,64.65
2017-03-19T03:07:33.680Z,64.65
2017-03-19T03:08:33.707Z,64.18
2017-03-19T03:09:33.714Z,64.27
2017-03-19T03:10:33.740Z,64.37
2017-03-19T03:11:33.745Z,64.27
2017-03-19T03:12:33.755Z,64.46
2017-03-19T03:13:33.464Z,64.84
2017-03-19T03:14:33.773Z,64.94
2017-03-19T03:15:33.780Z,64.65
2017-03-19T03:16:33.779Z,64.75
2017-03-19T03:17:33.789Z,64.84
2017-03-19T03:18:33.805Z,65.03
2017-03-19T03:19:33.805Z,64.75
2017-03-19T03:20:33.814Z,65.03
2017-03-19T03:21:33.809Z,65.03
2017-03-19T03:22:33.831Z,64.56
2017-03-19T03:23:33.837Z,64.84
2017-03-19T03:24:33.852Z,64.56
2017-03-19T03:25:33.864Z,64.94
2017-03-19T03:26:33.917Z,65.32
2017-03-19T03:27:33.897Z,65.41
2017-03-19T03:28:33.909Z,64.37
2017-03-19T03:29:33.920Z,65.22
2017-03-19T03:30:33.943Z,65.22
2017-03-19T03:31:33.950Z,64.65
2017-03-19T03:32:33.968Z,64.84
2017-03-19T03:33:33.749Z,65.22
2017-03-19T03:34:33.991Z,65.22
2017-03-19T03:35:34.005Z,65.13
2017-03-19T03:36:34.015Z,64.56
2017-03-19T03:37:34.064Z,64.84
2017-03-19T03:38:34.051Z,64.94
2017-03-19T03:39:34.062Z,64.84
2017-03-19T03:40:34.074Z,65.03
2017-03-19T03:41:34.084Z,65.13
2017-03-19T03:42:34.105Z,65.13
2017-03-19T03:43:34.121Z,65.32
2017-03-19T03:44:34.128Z,65.32
2017-03-19T03:45:34.178Z,65.32
2017-03-19T03:46:34.159Z,65.41
2017-03-19T03:47:34.175Z,65.41
2017-03-19T03:48:34.186Z,65.6
2017-03-19T03:49:34.198Z,65.51
2017-03-19T03:50:34.217Z,65.51
2017-03-19T03:51:34.223Z,65.13
2017-03-19T03:52:34.243Z,65.51
2017-03-19T03:53:34.254Z,65.51
2017-03-19T03:54:34.269Z,65.41
2017-03-19T03:55:33.966Z,65.41
2017-03-19T03:56:34.295Z,65.03
2017-03-19T03:57:34.318Z,64.84
2017-03-19T03:58:34.322Z,64.75
2017-03-19T03:59:34.337Z,64.94
2017-03-19T04:00:34.363Z,65.22
2017-03-19T04:01:34.369Z,65.13
2017-03-19T04:02:34.378Z,65.32
2017-03-19T04:03:34.394Z,65.13
2017-03-19T04:04:34.408Z,65.13
2017-03-19T04:05:34.425Z,65.22
2017-03-19T04:06:34.121Z,65.22
2017-03-19T04:07:34.450Z,65.13
2017-03-19T04:08:34.465Z,65.13
2017-03-19T04:09:34.478Z,65.13
2017-03-19T04:10:34.490Z,65.7
2017-03-19T04:11:34.503Z,65.32
2017-03-19T04:12:34.518Z,65.03
2017-03-19T04:13:34.536Z,65.32
2017-03-19T04:14:34.544Z,65.32
2017-03-19T04:15:34.560Z,65.03
2017-03-19T04:16:34.572Z,65.41
2017-03-19T04:17:34.584Z,65.32
2017-03-19T04:18:34.599Z,65.03
2017-03-19T04:19:34.617Z,65.6
2017-03-19T04:20:34.627Z,65.03
2017-03-19T04:21:34.648Z,65.03
2017-03-19T04:22:34.656Z,65.32
2017-03-19T04:23:34.674Z,65.32
2017-03-19T04:24:34.681Z,65.32
2017-03-19T04:25:34.704Z,65.32
2017-03-19T04:26:34.719Z,65.03
2017-03-19T04:27:34.723Z,65.22
2017-03-19T04:28:34.792Z,64.84
2017-03-19T04:29:34.754Z,65
2017-03-19T04:30:34.769Z,65.28
2017-03-19T04:31:34.826Z,65.32
2017-03-19T04:32:34.795Z,65.13
2017-03-19T04:33:34.805Z,65.13
2017-03-19T04:34:34.819Z,65.6
2017-03-19T04:35:34.837Z,65.13
2017-03-19T04:36:34.852Z,65.32
2017-03-19T04:37:34.868Z,65.51
2017-03-19T04:38:34.885Z,65.32
2017-03-19T04:39:35.013Z,65.32
2017-03-19T04:40:34.906Z,65.32
2017-03-19T04:41:34.920Z,65.89
2017-03-19T04:42:34.941Z,65.89
2017-03-19T04:43:34.958Z,65.8
2017-03-19T04:44:34.958Z,65.7
2017-03-19T04:45:34.975Z,65.89
2017-03-19T04:46:34.988Z,65.89
2017-03-19T04:47:35.003Z,65.89
2017-03-19T04:48:35.015Z,65.6
2017-03-19T04:49:35.030Z,65.6
2017-03-19T04:50:35.044Z,65.6
2017-03-19T04:51:35.056Z,65.67
2017-03-19T04:52:35.081Z,65.8
2017-03-19T04:53:35.108Z,65.76
2017-03-19T04:54:35.098Z,65.57
2017-03-19T04:55:35.116Z,65.67
2017-03-19T04:56:35.140Z,65.6
2017-03-19T04:57:35.142Z,65.7
2017-03-19T04:58:35.160Z,65.76
2017-03-19T04:59:35.171Z,65.32
2017-03-19T05:00:35.177Z,65.7
2017-03-19T05:01:34.883Z,65.76
2017-03-19T05:02:34.899Z,65.67
2017-03-19T05:03:35.259Z,65.8
2017-03-19T05:04:34.925Z,65.8
2017-03-19T05:05:35.428Z,65.8
2017-03-19T05:06:35.262Z,65.41
2017-03-19T05:07:35.279Z,65.57
2017-03-19T05:08:35.405Z,65.47
2017-03-19T05:09:35.306Z,65.47
2017-03-19T05:10:35.573Z,65.51
2017-03-19T05:11:35.441Z,65.57
2017-03-19T05:12:35.439Z,65.57
2017-03-19T05:13:35.473Z,65.51
2017-03-19T05:14:35.377Z,65.47
2017-03-19T05:15:35.389Z,65.8
2017-03-19T05:16:35.401Z,65.8
2017-03-19T05:17:35.417Z,65.41
2017-03-19T05:18:35.432Z,65.8
2017-03-19T05:19:35.444Z,65.8
2017-03-19T05:20:35.458Z,65.86
2017-03-19T05:21:35.470Z,65.76
2017-03-19T05:22:35.486Z,65.95
2017-03-19T05:23:35.509Z,65.7
2017-03-19T05:24:35.516Z,65.51
2017-03-19T05:25:35.528Z,65.57
2017-03-19T05:26:35.553Z,65.67
2017-03-19T05:27:35.337Z,65.8
2017-03-19T05:28:35.666Z,65.51
2017-03-19T05:29:35.581Z,65.57
2017-03-19T05:30:35.600Z,65.76
2017-03-19T05:31:35.611Z,65.51
2017-03-19T05:32:35.624Z,65.51
2017-03-19T05:33:35.638Z,65.51
2017-03-19T05:34:35.649Z,65.57
2017-03-19T05:35:35.665Z,65.95
2017-03-19T05:36:35.455Z,65.95
2017-03-19T05:37:35.698Z,65.99
2017-03-19T05:38:35.704Z,65.95
2017-03-19T05:39:35.723Z,65.86
2017-03-19T05:40:35.735Z,66.08
2017-03-19T05:41:35.759Z,65.8
2017-03-19T05:42:35.763Z,65.76
2017-03-19T05:43:35.781Z,65.89
2017-03-19T05:44:35.790Z,65.89
2017-03-19T05:45:35.806Z,66.17
2017-03-19T05:46:35.883Z,65.86
2017-03-19T05:47:35.831Z,65.99
2017-03-19T05:48:35.845Z,65.8
2017-03-19T05:49:35.860Z,65.86
2017-03-19T05:50:35.874Z,66.08
2017-03-19T05:51:35.887Z,65.86
2017-03-19T05:52:35.903Z,66.36
2017-03-19T05:53:35.917Z,65.89
2017-03-19T05:54:35.930Z,66.08
2017-03-19T05:55:35.938Z,66.08
2017-03-19T05:56:35.957Z,66.17
2017-03-19T05:57:35.967Z,65.89
2017-03-19T05:58:35.988Z,66.08
2017-03-19T05:59:35.993Z,65.99
2017-03-19T06:00:36.016Z,66.17
2017-03-19T06:01:36.024Z,65.99
2017-03-19T06:02:36.044Z,66.17
2017-03-19T06:03:36.047Z,65.89
2017-03-19T06:04:36.065Z,66.17
2017-03-19T06:05:36.080Z,66.08
2017-03-19T06:06:36.109Z,65.89
2017-03-19T06:07:36.116Z,66.17
2017-03-19T06:08:36.124Z,65.99
2017-03-19T06:09:36.139Z,65.89
2017-03-19T06:10:36.149Z,65.8
2017-03-19T06:11:36.164Z,65.7
2017-03-19T06:12:36.176Z,66.17
2017-03-19T06:13:36.186Z,65.99
2017-03-19T06:14:35.889Z,65.99
2017-03-19T06:15:36.214Z,65.51
2017-03-19T06:16:36.353Z,65.6
2017-03-19T06:17:36.243Z,65.89
2017-03-19T06:18:36.383Z,65.7
2017-03-19T06:19:36.355Z,66.17
2017-03-19T06:20:36.407Z,65.89
2017-03-19T06:21:36.301Z,65.89
2017-03-19T06:22:36.003Z,65.89
2017-03-19T06:23:36.332Z,66.27
2017-03-19T06:24:36.345Z,65.89
2017-03-19T06:25:36.356Z,66.27
2017-03-19T06:26:36.372Z,66.17
2017-03-19T06:27:36.391Z,66.08
2017-03-19T06:28:36.421Z,65.89
2017-03-19T06:29:36.412Z,65.99
2017-03-19T06:30:36.109Z,66.27
2017-03-19T06:31:36.436Z,65.7
2017-03-19T06:32:36.457Z,65.6
2017-03-19T06:33:36.472Z,65.6
2017-03-19T06:34:36.487Z,65.89
2017-03-19T06:35:36.621Z,65.8
2017-03-19T06:36:36.506Z,65.99
2017-03-19T06:37:36.518Z,65.8
2017-03-19T06:38:36.555Z,65.8
2017-03-19T06:39:36.582Z,65.89
2017-03-19T06:40:36.565Z,66.08
2017-03-19T06:41:36.614Z,66.17
2017-03-19T06:42:36.626Z,65.89
2017-03-19T06:43:36.704Z,65.8
2017-03-19T06:44:36.673Z,65.8
2017-03-19T06:45:36.662Z,65.83
2017-03-19T06:46:36.653Z,65.7
2017-03-19T06:47:36.669Z,65.7
2017-03-19T06:48:36.673Z,66.08
2017-03-19T06:49:36.694Z,65.54
2017-03-19T06:50:36.706Z,66.02
2017-03-19T06:51:36.721Z,65.92
2017-03-19T06:52:36.740Z,65.73
2017-03-19T06:53:36.934Z,65.45
2017-03-19T06:54:36.841Z,65.83
2017-03-19T06:55:36.893Z,65.54
2017-03-19T06:56:36.788Z,65.83
2017-03-19T06:57:36.798Z,65.73
2017-03-19T06:58:36.818Z,65.54
2017-03-19T06:59:36.831Z,65.73
2017-03-19T07:00:36.845Z,65.54
2017-03-19T07:01:36.856Z,65.35
2017-03-19T07:02:36.874Z,65.64
2017-03-19T07:03:36.887Z,65.83
2017-03-19T07:04:36.902Z,65.92
2017-03-19T07:05:36.912Z,65.73
2017-03-19T07:06:36.932Z,65.64
2017-03-19T07:07:36.638Z,65.35
2017-03-19T07:08:36.961Z,65.45
2017-03-19T07:09:36.972Z,65.45
2017-03-19T07:10:37.004Z,65.73
2017-03-19T07:11:37.003Z,65.45
2017-03-19T07:12:37.015Z,65.45
2017-03-19T07:13:37.027Z,65.35
2017-03-19T07:14:37.044Z,65.45
2017-03-19T07:15:37.051Z,65.64
2017-03-19T07:16:37.066Z,65.73
2017-03-19T07:17:37.093Z,65.45
2017-03-19T07:18:37.102Z,65.83
2017-03-19T07:19:37.112Z,66.02
2017-03-19T07:20:37.126Z,66.43
2017-03-19T07:21:37.143Z,65.83
2017-03-19T07:22:37.160Z,65.77
2017-03-19T07:23:37.171Z,65.86
2017-03-19T07:24:37.191Z,65.54
2017-03-19T07:25:37.199Z,65.95
2017-03-19T07:26:37.212Z,65.77
2017-03-19T07:27:37.225Z,65.67
2017-03-19T07:28:37.241Z,65.86
2017-03-19T07:29:37.260Z,65.95
2017-03-19T07:30:37.355Z,65.48
2017-03-19T07:31:37.289Z,65.58
2017-03-19T07:32:37.306Z,65.77
2017-03-19T07:33:37.320Z,65.95
2017-03-19T07:34:37.333Z,65.95
2017-03-19T07:35:37.343Z,65.67
2017-03-19T07:36:37.358Z,65.67
2017-03-19T07:37:37.379Z,65.77
2017-03-19T07:38:37.393Z,65.38
2017-03-19T07:39:37.404Z,65.77
2017-03-19T07:40:37.420Z,65.67
2017-03-19T07:41:37.433Z,65.67
2017-03-19T07:42:37.476Z,65.38
2017-03-19T07:43:37.465Z,65.38
2017-03-19T07:44:37.684Z,65.58
2017-03-19T07:45:37.687Z,65.95
2017-03-19T07:46:37.697Z,65.77
2017-03-19T07:47:37.704Z,65.48
2017-03-19T07:48:37.714Z,65.95
2017-03-19T07:49:37.642Z,66.05
2017-03-19T07:50:37.651Z,66.14
2017-03-19T07:51:37.798Z,65.95
2017-03-19T07:52:37.713Z,66.05
2017-03-19T07:53:37.611Z,66.05
2017-03-19T07:54:37.624Z,66.05
2017-03-19T07:55:37.637Z,66.24
2017-03-19T07:56:37.651Z,66.24
2017-03-19T07:57:37.788Z,65.77
2017-03-19T07:58:37.708Z,65.58
2017-03-19T07:59:37.695Z,65.67
2017-03-19T08:00:37.709Z,65.95
2017-03-19T08:01:37.725Z,65.95
2017-03-19T08:02:37.746Z,66.05
2017-03-19T08:03:37.851Z,65.99
2017-03-19T08:04:37.774Z,65.86
2017-03-19T08:05:37.783Z,66.08
2017-03-19T08:06:37.797Z,66.27
2017-03-19T08:07:37.812Z,66.18
2017-03-19T08:08:37.828Z,66.08
2017-03-19T08:09:37.848Z,65.89
2017-03-19T08:10:37.859Z,65.7
2017-03-19T08:11:37.869Z,65.7
2017-03-19T08:12:37.908Z,65.7
2017-03-19T08:13:37.909Z,65.99
2017-03-19T08:14:37.915Z,65.42
2017-03-19T08:15:37.626Z,65.61
2017-03-19T08:16:37.949Z,65.61
2017-03-19T08:17:37.968Z,65.51
2017-03-19T08:18:37.986Z,65.51
2017-03-19T08:19:37.994Z,65.61
2017-03-19T08:20:38.011Z,65.51
2017-03-19T08:21:38.030Z,65.8
2017-03-19T08:22:38.039Z,65.99
2017-03-19T08:23:38.057Z,65.42
2017-03-19T08:24:38.070Z,65.89
2017-03-19T08:25:38.085Z,65.61
2017-03-19T08:26:37.790Z,65.89
2017-03-19T08:27:38.119Z,65.51
2017-03-19T08:28:38.133Z,65.8
2017-03-19T08:29:38.148Z,64.94
2017-03-19T08:30:38.160Z,65.51
2017-03-19T08:31:38.177Z,65.61
2017-03-19T08:32:38.198Z,65.61
2017-03-19T08:33:38.210Z,65.23
2017-03-19T08:34:38.222Z,65.51
2017-03-19T08:35:38.236Z,65.23
2017-03-19T08:36:38.254Z,65.61
2017-03-19T08:37:38.277Z,65.42
2017-03-19T08:38:38.287Z,65.51
2017-03-19T08:39:38.294Z,65.8
2017-03-19T08:40:38.313Z,65.51
2017-03-19T08:41:38.333Z,65.51
2017-03-19T08:42:38.346Z,64.94
2017-03-19T08:43:38.368Z,65.13
2017-03-19T08:44:38.378Z,65.61
2017-03-19T08:45:38.392Z,65.8
2017-03-19T08:46:38.403Z,65.03
2017-03-19T08:47:38.419Z,65.51
2017-03-19T08:48:38.436Z,65.51
2017-03-19T08:49:38.447Z,65.03
2017-03-19T08:50:38.151Z,64.75
2017-03-19T08:51:38.483Z,65.23
2017-03-19T08:52:38.502Z,64.94
2017-03-19T08:53:38.516Z,64.94
2017-03-19T08:54:38.524Z,64.75
2017-03-19T08:55:38.546Z,64.75
2017-03-19T08:56:38.572Z,64.94
2017-03-19T08:57:38.589Z,65.13
2017-03-19T08:58:38.595Z,65.13
2017-03-19T08:59:38.601Z,65.13
2017-03-19T09:00:38.620Z,65.13
2017-03-19T09:01:38.641Z,65.23
2017-03-19T09:02:38.651Z,64.75
2017-03-19T09:03:38.667Z,64.94
2017-03-19T09:04:38.681Z,64.75
2017-03-19T09:05:38.700Z,65.03
2017-03-19T09:06:38.714Z,65.03
2017-03-19T09:07:38.726Z,65.13
2017-03-19T09:08:38.744Z,65.03
2017-03-19T09:09:38.760Z,64.65
2017-03-19T09:10:38.819Z,65.23
2017-03-19T09:11:38.786Z,64.84
2017-03-19T09:12:38.800Z,65.03
2017-03-19T09:13:38.815Z,65.13
2017-03-19T09:14:38.840Z,64.56
2017-03-19T09:15:38.849Z,65.13
2017-03-19T09:16:38.874Z,65.51
2017-03-19T09:17:38.986Z,65.03
2017-03-19T09:18:38.994Z,65.61
2017-03-19T09:19:38.917Z,65.61
2017-03-19T09:20:38.932Z,65.03
2017-03-19T09:21:38.945Z,65.13
2017-03-19T09:22:38.959Z,65.13
2017-03-19T09:23:38.977Z,65.42
2017-03-19T09:24:38.988Z,65.32
2017-03-19T09:25:39.007Z,65.51
2017-03-19T09:26:39.024Z,65.99
2017-03-19T09:27:39.035Z,65.51
2017-03-19T09:28:39.051Z,65.61
2017-03-19T09:29:39.065Z,65.42
2017-03-19T09:30:39.116Z,65.89
2017-03-19T09:31:39.101Z,65.61
2017-03-19T09:32:39.124Z,65.7
2017-03-19T09:33:39.129Z,65.8
2017-03-19T09:34:39.144Z,65.51
2017-03-19T09:35:39.159Z,65.8
2017-03-19T09:36:39.177Z,65.61
2017-03-19T09:37:39.250Z,65.61
2017-03-19T09:38:39.237Z,65.42
2017-03-19T09:39:39.223Z,65.61
2017-03-19T09:40:39.238Z,65.7
2017-03-19T09:41:39.253Z,65.61
2017-03-19T09:42:38.961Z,65.42
2017-03-19T09:43:39.282Z,65.7
2017-03-19T09:44:39.297Z,65.7
2017-03-19T09:45:39.398Z,65.8
2017-03-19T09:46:39.329Z,65.8
2017-03-19T09:47:39.342Z,65.8
2017-03-19T09:48:39.361Z,65.8
2017-03-19T09:49:39.534Z,65.51
2017-03-19T09:50:39.579Z,65.8
2017-03-19T09:51:39.407Z,65.8
2017-03-19T09:52:39.427Z,65.89
2017-03-19T09:53:39.444Z,65.42
2017-03-19T09:54:39.143Z,65.51
2017-03-19T09:55:39.472Z,65.51
2017-03-19T09:56:39.175Z,65.61
2017-03-19T09:57:39.537Z,65.61
2017-03-19T09:58:39.520Z,65.51
2017-03-19T09:59:39.538Z,65.7
2017-03-19T10:00:39.545Z,65.8
2017-03-19T10:01:39.562Z,65.61
2017-03-19T10:02:39.584Z,65.42
2017-03-19T10:03:39.600Z,65.8
2017-03-19T10:04:39.610Z,65.7
2017-03-19T10:05:39.638Z,65.61
2017-03-19T10:06:39.641Z,65.51
2017-03-19T10:07:39.665Z,65.64
2017-03-19T10:08:39.679Z,65.61
2017-03-19T10:09:39.373Z,65.36
2017-03-19T10:10:39.703Z,65.7
2017-03-19T10:11:39.721Z,65.99
2017-03-19T10:12:39.736Z,65.61
2017-03-19T10:13:39.754Z,65.42
2017-03-19T10:14:39.768Z,65.32
2017-03-19T10:15:39.784Z,66.02
2017-03-19T10:16:39.800Z,65.99
2017-03-19T10:17:39.500Z,66.02
2017-03-19T10:18:39.830Z,65.8
2017-03-19T10:19:40.043Z,65.89
2017-03-19T10:20:39.902Z,65.8
2017-03-19T10:21:39.874Z,65.83
2017-03-19T10:22:39.892Z,65.55
2017-03-19T10:23:39.911Z,66.02
2017-03-19T10:24:39.928Z,66.02
2017-03-19T10:25:39.938Z,65.64
2017-03-19T10:26:39.949Z,65.55
2017-03-19T10:27:39.978Z,65.73
2017-03-19T10:28:39.989Z,65.83
2017-03-19T10:29:40.001Z,65.92
2017-03-19T10:30:40.018Z,66.11
2017-03-19T10:31:40.034Z,65.64
2017-03-19T10:32:40.048Z,66.02
2017-03-19T10:33:39.750Z,66.31
2017-03-19T10:34:40.080Z,66.31
2017-03-19T10:35:40.094Z,66.4
2017-03-19T10:36:40.111Z,66.59
2017-03-19T10:37:40.353Z,66.4
2017-03-19T10:38:40.146Z,66.78
2017-03-19T10:39:39.869Z,66.11
2017-03-19T10:40:40.373Z,66.02
2017-03-19T10:41:40.189Z,66.31
2017-03-19T10:42:40.219Z,66.21
2017-03-19T10:43:40.220Z,66.31
2017-03-19T10:44:40.235Z,66.4
2017-03-19T10:45:40.263Z,66.97
2017-03-19T10:46:40.266Z,66.21
2017-03-19T10:47:40.280Z,66.4
2017-03-19T10:48:40.296Z,66.5
2017-03-19T10:49:40.315Z,66.5
2017-03-19T10:50:40.331Z,66.02
2017-03-19T10:51:40.347Z,66.02
2017-03-19T10:52:40.365Z,65.92
2017-03-19T10:53:40.379Z,66.31
2017-03-19T10:54:40.079Z,65.83
2017-03-19T10:55:40.421Z,66.5
2017-03-19T10:56:40.423Z,66.5
2017-03-19T10:57:40.446Z,66.21
2017-03-19T10:58:40.456Z,66.02
2017-03-19T10:59:40.480Z,66.5
2017-03-19T11:00:40.486Z,66.4
2017-03-19T11:01:40.501Z,67.16
2017-03-19T11:02:40.524Z,66.31
2017-03-19T11:03:40.543Z,66.31
2017-03-19T11:04:40.550Z,66.88
2017-03-19T11:05:40.573Z,66.78
2017-03-19T11:06:40.580Z,66.59
2017-03-19T11:07:40.598Z,67.16
2017-03-19T11:08:40.614Z,67.16
2017-03-19T11:09:40.632Z,66.78
2017-03-19T11:10:40.645Z,67.16
2017-03-19T11:11:40.667Z,66.88
2017-03-19T11:12:40.687Z,67.16
2017-03-19T11:13:40.691Z,67.45
2017-03-19T11:14:40.714Z,67.07
2017-03-19T11:15:40.728Z,66.69
2017-03-19T11:16:40.742Z,67.35
2017-03-19T11:17:40.763Z,67.35
2017-03-19T11:18:40.775Z,66.88
2017-03-19T11:19:40.791Z,67.16
2017-03-19T11:20:40.803Z,67.55
2017-03-19T11:21:40.824Z,66.69
2017-03-19T11:22:40.838Z,66.97
2017-03-19T11:23:40.546Z,67.39
2017-03-19T11:24:40.866Z,67.16
2017-03-19T11:25:40.888Z,66.88
2017-03-19T11:26:40.899Z,66.78
2017-03-19T11:27:40.920Z,66.97
2017-03-19T11:28:40.936Z,67.07
2017-03-19T11:29:40.953Z,66.88
2017-03-19T11:30:40.966Z,66.69
2017-03-19T11:31:40.982Z,67.16
2017-03-19T11:32:41.004Z,67.35
2017-03-19T11:33:41.017Z,67.45
2017-03-19T11:34:41.032Z,67.35
2017-03-19T11:35:41.054Z,67.07
2017-03-19T11:36:41.060Z,67.16
2017-03-19T11:37:41.081Z,67.16
2017-03-19T11:38:41.098Z,67.1
2017-03-19T11:39:41.108Z,67.07
2017-03-19T11:40:41.132Z,66.97
2017-03-19T11:41:41.141Z,66.97
2017-03-19T11:42:41.162Z,67.39
2017-03-19T11:43:41.177Z,66.82
2017-03-19T11:44:41.195Z,66.63
2017-03-19T11:45:41.207Z,66.72
2017-03-19T11:46:41.228Z,66.82
2017-03-19T11:47:41.240Z,67.39
2017-03-19T11:48:41.258Z,66.72
2017-03-19T11:49:40.955Z,66.63
2017-03-19T11:50:41.299Z,66.91
2017-03-19T11:51:41.305Z,67.2
2017-03-19T11:52:41.321Z,67.58
2017-03-19T11:53:41.338Z,67.39
2017-03-19T11:54:41.349Z,66.82
2017-03-19T11:55:41.371Z,67.39
2017-03-19T11:56:41.383Z,67.2
2017-03-19T11:57:41.402Z,67.2
2017-03-19T11:58:41.099Z,67.2
2017-03-19T11:59:41.431Z,67
2017-03-19T12:00:41.450Z,67.96
2017-03-19T12:01:41.469Z,66.82
2017-03-19T12:02:41.485Z,67.1
2017-03-19T12:03:41.503Z,67
2017-03-19T12:04:41.528Z,67.2
2017-03-19T12:05:41.530Z,67.29
2017-03-19T12:06:41.546Z,67.2
2017-03-19T12:07:41.565Z,67.58
2017-03-19T12:08:41.579Z,67.1
2017-03-19T12:09:41.601Z,66.91
2017-03-19T12:10:41.626Z,67.1
2017-03-19T12:11:41.315Z,67.39
2017-03-19T12:12:41.656Z,66.72
2017-03-19T12:13:41.662Z,67
2017-03-19T12:14:41.673Z,67.39
2017-03-19T12:15:41.707Z,66.82
2017-03-19T12:16:41.708Z,67.29
2017-03-19T12:17:41.733Z,67.2
2017-03-19T12:18:41.747Z,67.23
2017-03-19T12:19:41.756Z,66.94
2017-03-19T12:20:41.462Z,67.39
2017-03-19T12:21:41.787Z,67.48
2017-03-19T12:22:41.805Z,67
2017-03-19T12:23:41.823Z,66.91
2017-03-19T12:24:41.841Z,67
2017-03-19T12:25:41.856Z,66.85
2017-03-19T12:26:41.872Z,67.23
2017-03-19T12:27:41.580Z,66.94
2017-03-19T12:28:41.904Z,67.23
2017-03-19T12:29:41.922Z,67.04
2017-03-19T12:30:41.934Z,67.68
2017-03-19T12:31:41.955Z,66.91
2017-03-19T12:32:41.974Z,67.86
2017-03-19T12:33:41.990Z,67.9
2017-03-19T12:34:42.002Z,68.18
2017-03-19T12:35:42.022Z,67.8
2017-03-19T12:36:42.037Z,68.18
2017-03-19T12:37:42.051Z,68.18
2017-03-19T12:38:42.068Z,67.99
2017-03-19T12:39:42.090Z,67.61
2017-03-19T12:40:42.103Z,67.9
2017-03-19T12:41:42.120Z,67.52
2017-03-19T12:42:42.142Z,67.52
2017-03-19T12:43:42.155Z,67.42
2017-03-19T12:44:42.166Z,68.57
2017-03-19T12:45:41.872Z,67.42
2017-03-19T12:46:42.205Z,67.71
2017-03-19T12:47:41.902Z,67.42
2017-03-19T12:48:42.254Z,67.61
2017-03-19T12:49:42.255Z,67.71
2017-03-19T12:50:42.272Z,68.57
2017-03-19T12:51:42.283Z,67.8
2017-03-19T12:52:42.299Z,67.9
2017-03-19T12:53:42.318Z,67.71
2017-03-19T12:54:42.334Z,67.8
2017-03-19T12:55:42.352Z,67.9
2017-03-19T12:56:42.376Z,68.32